Time;durP1;ratioP1;P1;durP2;ratioP2;P2;SDS_P1;SDS_P2;PMS_P1;PMS_P2;Temp;Humidity;BMP_temperature;BMP_pressure;BME280_temperature;BME280_humidity;BME280_pressure;Samples;Min_cycle;Max_cycle;Signal;HPM_P1;HPM_P2
2021/05/24 00:00:52;;;;;;;5.70;0.90;;;8.20;99.90;;;;;;5008908;28;20911;-69
2021/05/24 00:03:20;;;;;;;5.53;1.30;;;8.30;99.90;;;;;;5025912;28;20516;-70
2021/05/24 00:05:46;;;;;;;5.00;0.90;;;8.20;99.90;;;;;;5016336;28;20635;-68
2021/05/24 00:08:11;;;;;;;5.47;1.10;;;8.20;99.90;;;;;;5035412;28;20196;-68
2021/05/24 00:10:42;;;;;;;5.30;1.40;;;8.10;99.90;;;;;;5034863;28;20225;-68
2021/05/24 00:13:11;;;;;;;6.43;1.65;;;8.10;99.90;;;;;;5015244;28;20176;-68
2021/05/24 00:15:49;;;;;;;4.63;0.80;;;8.00;99.90;;;;;;5014804;28;20634;-69
2021/05/24 00:18:16;;;;;;;4.90;0.90;;;7.90;99.90;;;;;;4996150;28;20172;-67
2021/05/24 00:20:59;;;;;;;5.13;0.90;;;7.90;99.90;;;;;;4980191;28;20176;-71
2021/05/24 00:23:25;;;;;;;5.00;0.80;;;7.90;99.90;;;;;;5034956;28;20175;-68
2021/05/24 00:25:51;;;;;;;5.00;1.03;;;7.90;99.90;;;;;;5033588;28;20205;-69
2021/05/24 00:28:17;;;;;;;5.10;1.00;;;7.90;99.90;;;;;;5015261;28;20199;-70
2021/05/24 00:30:50;;;;;;;5.05;1.10;;;7.90;99.90;;;;;;5013241;28;20198;-69
2021/05/24 00:33:17;;;;;;;5.40;1.52;;;7.90;99.90;;;;;;5005905;28;20179;-70
2021/05/24 00:35:43;;;;;;;5.68;1.20;;;7.80;99.90;;;;;;5015904;28;20716;-68
2021/05/24 00:38:09;;;;;;;5.00;1.03;;;7.80;99.90;;;;;;4996923;28;20183;-69
2021/05/24 00:40:38;;;;;;;4.78;0.70;;;7.80;99.90;;;;;;4996012;28;20460;-69
2021/05/24 00:43:04;;;;;;;5.35;1.50;;;7.70;99.90;;;;;;5033482;28;20171;-70
2021/05/24 00:45:30;;;;;;;5.10;1.27;;;7.70;99.90;;;;;;5004796;28;20198;-71
2021/05/24 00:47:56;;;;;;;5.00;0.87;;;7.70;99.90;;;;;;5030845;28;20580;-70
2021/05/24 00:50:22;;;;;;;5.30;1.50;;;7.60;99.90;;;;;;5034659;28;20198;-70
2021/05/24 00:52:48;;;;;;;6.47;1.83;;;7.60;99.90;;;;;;5017339;28;20183;-68
2021/05/24 00:55:13;;;;;;;5.60;1.33;;;7.50;99.90;;;;;;4997006;28;20210;-68
2021/05/24 00:57:39;;;;;;;5.47;1.47;;;7.50;99.90;;;;;;5004818;28;20171;-68
2021/05/24 01:00:26;;;;;;;4.87;1.03;;;7.50;99.90;;;;;;4995303;28;20415;-69
2021/05/24 01:02:52;;;;;;;4.90;0.90;;;7.50;99.90;;;;;;5026686;28;20767;-68
2021/05/24 01:05:18;;;;;;;5.30;1.05;;;7.50;99.90;;;;;;5034581;28;20203;-67
2021/05/24 01:07:43;;;;;;;5.43;1.10;;;7.50;99.90;;;;;;5033932;28;20188;-68
2021/05/24 01:10:10;;;;;;;5.13;1.20;;;7.50;99.90;;;;;;5034459;28;20166;-68
2021/05/24 01:12:35;;;;;;;5.00;1.02;;;7.60;99.90;;;;;;5015620;28;20179;-67
2021/05/24 01:15:01;;;;;;;4.87;0.87;;;7.60;99.90;;;;;;5013959;28;20256;-67
2021/05/24 01:17:27;;;;;;;4.97;0.67;;;7.60;99.90;;;;;;5029846;28;20182;-72
2021/05/24 01:19:52;;;;;;;5.37;1.37;;;7.50;99.90;;;;;;5029450;28;20171;-67
2021/05/24 01:22:20;;;;;;;5.00;1.17;;;7.50;99.90;;;;;;5014357;28;20249;-69
2021/05/24 01:24:47;;;;;;;5.00;1.20;;;7.50;99.90;;;;;;4994730;28;20198;-69
2021/05/24 01:27:13;;;;;;;5.18;1.65;;;7.50;99.90;;;;;;4994673;28;20182;-68
2021/05/24 01:29:39;;;;;;;5.13;1.10;;;7.40;99.90;;;;;;4999364;28;20190;-70
2021/05/24 01:32:05;;;;;;;5.43;1.17;;;7.40;99.90;;;;;;5033894;28;20402;-67
2021/05/24 01:34:34;;;;;;;5.00;0.90;;;7.40;99.90;;;;;;5032278;28;20819;-67
2021/05/24 01:37:01;;;;;;;5.30;1.00;;;7.40;99.90;;;;;;5014356;28;20250;-68
2021/05/24 01:39:27;;;;;;;5.10;1.05;;;7.40;99.90;;;;;;5014409;28;20237;-68
2021/05/24 01:41:53;;;;;;;5.60;1.30;;;7.40;99.90;;;;;;5013867;28;20176;-67
2021/05/24 01:44:40;;;;;;;5.00;1.00;;;7.50;99.90;;;;;;5010287;28;20494;-68
2021/05/24 01:47:07;;;;;;;6.25;1.75;;;7.30;99.90;;;;;;5033873;28;20182;-70
2021/05/24 01:49:35;;;;;;;5.68;0.85;;;7.30;99.90;;;;;;5015320;28;20262;-71
2021/05/24 01:52:05;;;;;;;5.10;1.00;;;7.30;99.90;;;;;;5014009;28;20175;-69
2021/05/24 01:54:32;;;;;;;5.28;1.10;;;7.30;99.90;;;;;;5025383;28;20211;-71
2021/05/24 01:56:58;;;;;;;5.57;1.40;;;7.30;99.90;;;;;;4993896;28;20175;-69
2021/05/24 01:59:24;;;;;;;4.90;0.80;;;7.30;99.90;;;;;;5025705;28;20246;-71
2021/05/24 02:01:49;;;;;;;6.60;1.77;;;7.30;99.90;;;;;;5033701;28;20256;-69
2021/05/24 02:04:16;;;;;;;6.60;1.10;;;7.20;99.90;;;;;;5017591;28;20199;-71
2021/05/24 02:06:42;;;;;;;5.20;0.98;;;7.20;99.90;;;;;;5013861;28;20625;-70
2021/05/24 02:09:07;;;;;;;5.03;1.05;;;7.10;99.90;;;;;;5020314;28;20203;-70
2021/05/24 02:11:33;;;;;;;5.40;1.40;;;7.10;99.90;;;;;;4994261;28;20199;-68
2021/05/24 02:13:59;;;;;;;5.47;1.13;;;7.10;99.90;;;;;;5018928;28;20229;-69
2021/05/24 02:16:45;;;;;;;4.77;0.83;;;7.00;99.90;;;;;;5001829;28;20509;-70
2021/05/24 02:19:12;;;;;;;5.63;1.25;;;7.00;99.90;;;;;;5021098;28;20174;-68
2021/05/24 02:21:38;;;;;;;5.55;1.88;;;7.00;99.90;;;;;;5033179;28;20212;-70
2021/05/24 02:24:05;;;;;;;6.43;2.28;;;7.00;99.90;;;;;;5019327;28;20202;-71
2021/05/24 02:26:31;;;;;;;6.57;1.00;;;6.90;99.90;;;;;;5021766;28;20265;-70
2021/05/24 02:28:57;;;;;;;5.80;1.20;;;6.90;99.90;;;;;;5033201;28;20170;-69
2021/05/24 02:31:23;;;;;;;7.37;2.43;;;6.90;99.90;;;;;;5021742;28;20178;-70
2021/05/24 02:33:49;;;;;;;4.90;1.17;;;6.90;99.90;;;;;;5032614;28;20198;-69
2021/05/24 02:36:15;;;;;;;5.72;1.35;;;6.90;99.90;;;;;;5027973;28;20175;-69
2021/05/24 02:38:43;;;;;;;9.17;1.27;;;6.90;99.90;;;;;;5013463;28;20724;-69
2021/05/24 02:41:09;;;;;;;5.45;1.33;;;6.90;99.90;;;;;;5017283;28;20432;-70
2021/05/24 02:43:35;;;;;;;11.60;1.15;;;6.90;99.90;;;;;;4998036;28;20519;-67
2021/05/24 02:46:00;;;;;;;5.23;1.13;;;6.80;99.90;;;;;;5006787;28;20241;-71
2021/05/24 02:48:26;;;;;;;5.50;1.53;;;6.90;99.90;;;;;;5026049;28;20184;-67
2021/05/24 02:50:52;;;;;;;6.37;1.57;;;6.90;99.90;;;;;;5014196;28;20220;-69
2021/05/24 02:53:18;;;;;;;5.50;1.48;;;6.90;99.90;;;;;;5032710;28;20244;-69
2021/05/24 02:55:44;;;;;;;4.60;0.70;;;6.90;99.90;;;;;;5026912;28;20195;-68
2021/05/24 02:58:10;;;;;;;4.80;0.83;;;6.90;99.90;;;;;;5013467;28;20652;-70
2021/05/24 03:00:36;;;;;;;5.65;1.42;;;6.90;99.90;;;;;;5021798;28;20420;-70
2021/05/24 03:03:01;;;;;;;6.33;0.97;;;6.90;99.90;;;;;;5032707;28;20166;-69
2021/05/24 03:05:27;;;;;;;5.00;1.47;;;6.90;99.90;;;;;;5025221;28;20453;-68
2021/05/24 03:07:53;;;;;;;5.87;1.47;;;6.90;99.90;;;;;;5016423;28;20412;-71
2021/05/24 03:10:22;;;;;;;5.80;1.60;;;6.80;99.90;;;;;;4996584;28;20186;-67
2021/05/24 03:12:48;;;;;;;4.70;0.70;;;6.80;99.90;;;;;;4997119;28;20233;-69
2021/05/24 03:15:17;;;;;;;5.00;0.90;;;6.80;99.90;;;;;;5007457;28;20225;-68
2021/05/24 03:17:42;;;;;;;4.57;1.02;;;6.80;99.90;;;;;;5036659;28;20166;-70
2021/05/24 03:20:11;;;;;;;4.73;1.00;;;6.90;99.90;;;;;;5020546;28;20649;-67
2021/05/24 03:22:37;;;;;;;4.70;1.10;;;6.90;99.90;;;;;;5016673;28;20402;-70
2021/05/24 03:25:03;;;;;;;5.10;1.02;;;6.90;99.90;;;;;;5019441;28;20194;-68
2021/05/24 03:27:29;;;;;;;4.50;0.60;;;6.90;99.90;;;;;;5036104;28;20174;-69
2021/05/24 03:29:55;;;;;;;6.20;0.90;;;7.00;99.90;;;;;;5036075;28;20694;-69
2021/05/24 03:32:21;;;;;;;4.47;0.80;;;7.00;99.90;;;;;;5036411;28;20209;-68
2021/05/24 03:34:46;;;;;;;5.00;1.13;;;7.00;99.90;;;;;;5020575;28;20211;-67
2021/05/24 03:37:12;;;;;;;5.53;1.57;;;7.00;99.90;;;;;;5035891;28;20201;-69
2021/05/24 03:39:38;;;;;;;4.60;1.00;;;7.00;99.90;;;;;;5036210;28;20194;-70
2021/05/24 03:42:04;;;;;;;5.07;0.93;;;7.00;99.90;;;;;;5012594;28;20175;-68
2021/05/24 03:44:29;;;;;;;5.75;1.15;;;7.00;99.90;;;;;;4996114;28;20202;-69
2021/05/24 03:46:55;;;;;;;4.80;0.90;;;7.10;99.90;;;;;;5028682;28;20541;-68
2021/05/24 03:49:21;;;;;;;5.17;1.33;;;7.10;99.90;;;;;;5035963;28;20165;-68
2021/05/24 03:51:47;;;;;;;4.65;0.90;;;7.10;99.90;;;;;;5020384;28;20183;-69
2021/05/24 03:54:12;;;;;;;4.60;0.80;;;7.10;99.90;;;;;;5015573;28;20218;-69
2021/05/24 03:56:38;;;;;;;6.17;1.37;;;7.00;99.90;;;;;;5021943;28;20228;-69
2021/05/24 03:59:04;;;;;;;4.60;1.00;;;7.00;99.90;;;;;;4996607;28;20203;-69
2021/05/24 04:01:30;;;;;;;4.80;1.33;;;7.10;99.90;;;;;;5021292;28;20190;-69
2021/05/24 04:03:56;;;;;;;4.65;0.77;;;7.10;99.90;;;;;;5035259;28;20196;-68
2021/05/24 04:06:25;;;;;;;4.60;1.00;;;7.10;99.90;;;;;;5033833;28;20194;-69
2021/05/24 04:08:51;;;;;;;4.65;1.20;;;7.10;99.90;;;;;;5035886;28;20273;-68
2021/05/24 04:11:17;;;;;;;4.40;0.80;;;7.10;99.90;;;;;;5029726;28;20269;-68
2021/05/24 04:13:48;;;;;;;5.43;1.33;;;7.10;99.90;;;;;;4996628;28;20458;-68
2021/05/24 04:16:14;;;;;;;4.70;1.35;;;7.20;99.90;;;;;;5018743;28;20170;-69
2021/05/24 04:18:43;;;;;;;4.70;1.23;;;7.20;99.90;;;;;;5034623;28;20168;-68
2021/05/24 04:21:09;;;;;;;5.25;1.10;;;7.20;99.90;;;;;;5033387;28;20184;-69
2021/05/24 04:23:35;;;;;;;4.70;0.90;;;7.30;99.90;;;;;;5034954;28;20257;-68
2021/05/24 04:26:00;;;;;;;4.63;0.90;;;7.30;99.90;;;;;;5028463;28;20254;-69
2021/05/24 04:28:26;;;;;;;4.80;1.10;;;7.30;99.90;;;;;;5015016;28;20179;-68
2021/05/24 04:30:52;;;;;;;4.93;1.00;;;7.40;99.90;;;;;;5015719;28;20175;-69
2021/05/24 04:33:17;;;;;;;4.57;0.83;;;7.40;99.90;;;;;;5015247;28;20198;-68
2021/05/24 04:35:43;;;;;;;5.07;1.20;;;7.50;99.90;;;;;;5020522;28;20186;-69
2021/05/24 04:38:09;;;;;;;4.60;1.10;;;7.50;99.90;;;;;;5034892;28;20513;-69
2021/05/24 04:40:34;;;;;;;4.63;1.10;;;7.50;99.90;;;;;;5018126;28;20166;-69
2021/05/24 04:43:00;;;;;;;4.70;0.80;;;7.50;99.90;;;;;;5034633;28;20162;-70
2021/05/24 04:45:25;;;;;;;6.17;1.20;;;7.50;99.90;;;;;;5033016;28;20194;-69
2021/05/24 04:47:51;;;;;;;4.93;1.00;;;7.50;99.90;;;;;;5024725;28;20173;-69
2021/05/24 04:50:17;;;;;;;5.20;1.30;;;7.50;99.90;;;;;;5017932;28;20178;-66
2021/05/24 04:52:43;;;;;;;4.70;0.90;;;7.60;99.90;;;;;;5031703;28;20597;-68
2021/05/24 04:55:12;;;;;;;5.28;1.75;;;7.60;99.90;;;;;;5013538;28;20462;-67
2021/05/24 04:57:38;;;;;;;4.70;0.98;;;7.60;99.90;;;;;;4999359;28;20258;-67
2021/05/24 05:00:06;;;;;;;4.40;0.63;;;7.60;99.90;;;;;;5034510;28;20167;-66
2021/05/24 05:02:31;;;;;;;4.90;1.27;;;7.70;99.90;;;;;;5033472;28;20218;-68
2021/05/24 05:04:57;;;;;;;5.43;0.90;;;7.70;99.90;;;;;;5014192;28;20257;-68
2021/05/24 05:07:23;;;;;;;5.23;1.07;;;7.80;99.90;;;;;;5014704;28;20181;-69
2021/05/24 05:09:49;;;;;;;4.83;0.80;;;7.90;99.90;;;;;;4998444;28;20181;-67
2021/05/24 05:12:14;;;;;;;4.70;1.10;;;8.00;99.90;;;;;;4995164;28;20177;-67
2021/05/24 05:14:40;;;;;;;5.13;1.53;;;8.00;99.90;;;;;;5030229;28;20246;-68
2021/05/24 05:17:06;;;;;;;5.43;1.20;;;8.10;99.90;;;;;;5031063;28;20231;-67
2021/05/24 05:19:32;;;;;;;5.17;1.20;;;8.20;99.90;;;;;;5030471;28;20525;-70
2021/05/24 05:21:57;;;;;;;4.60;0.73;;;8.20;99.90;;;;;;5016252;28;20175;-68
2021/05/24 05:24:23;;;;;;;6.10;2.00;;;8.30;99.90;;;;;;5019001;28;20209;-69
2021/05/24 05:26:49;;;;;;;5.90;1.30;;;8.40;99.90;;;;;;5014493;28;20167;-66
2021/05/24 05:29:14;;;;;;;4.53;0.70;;;8.60;99.90;;;;;;5026339;28;20174;-68
2021/05/24 05:31:40;;;;;;;6.23;1.43;;;8.70;99.90;;;;;;4997800;28;20181;-69
2021/05/24 05:34:06;;;;;;;6.90;1.57;;;8.80;99.90;;;;;;5016291;28;20236;-71
2021/05/24 05:36:32;;;;;;;5.80;1.70;;;8.90;99.90;;;;;;5034061;28;20159;-67
2021/05/24 05:38:58;;;;;;;5.22;1.08;;;9.10;99.90;;;;;;5031992;28;20223;-68
2021/05/24 05:41:24;;;;;;;5.90;1.47;;;9.10;99.90;;;;;;5033932;28;20249;-68
2021/05/24 05:43:50;;;;;;;6.90;1.40;;;9.20;99.90;;;;;;5028588;28;20169;-68
2021/05/24 05:46:15;;;;;;;5.13;1.00;;;9.40;99.90;;;;;;5017856;28;20429;-70
2021/05/24 05:48:41;;;;;;;6.47;1.70;;;9.50;99.90;;;;;;5019766;28;20417;-66
2021/05/24 05:51:09;;;;;;;6.47;2.00;;;9.50;99.90;;;;;;5033781;28;20173;-68
2021/05/24 05:53:35;;;;;;;5.10;1.25;;;9.60;99.90;;;;;;5024757;28;20193;-67
2021/05/24 05:56:01;;;;;;;5.93;1.60;;;9.60;99.90;;;;;;5011614;28;20181;-67
2021/05/24 05:58:26;;;;;;;5.95;1.88;;;9.60;99.90;;;;;;4999896;28;20201;-67
2021/05/24 06:00:52;;;;;;;5.17;1.27;;;9.60;99.90;;;;;;5033452;28;20194;-66
2021/05/24 06:03:18;;;;;;;7.33;1.83;;;9.70;99.90;;;;;;5030605;28;20166;-67
2021/05/24 06:05:43;;;;;;;5.70;1.40;;;9.70;99.90;;;;;;5013247;28;20205;-66
2021/05/24 06:08:09;;;;;;;5.17;1.10;;;9.80;99.90;;;;;;5013749;28;20641;-67
2021/05/24 06:10:35;;;;;;;5.63;1.40;;;9.90;99.90;;;;;;5033118;28;20166;-68
2021/05/24 06:13:01;;;;;;;5.40;1.17;;;10.00;99.90;;;;;;5033003;28;20185;-69
2021/05/24 06:15:26;;;;;;;5.90;1.70;;;10.10;99.90;;;;;;5014198;28;20496;-68
2021/05/24 06:17:53;;;;;;;7.10;1.47;;;10.20;99.90;;;;;;5033260;28;20412;-69
2021/05/24 06:20:18;;;;;;;6.07;1.60;;;10.30;99.90;;;;;;5014941;28;20605;-67
2021/05/24 06:22:44;;;;;;;5.73;1.53;;;10.40;99.90;;;;;;5012498;28;20209;-69
2021/05/24 06:25:11;;;;;;;5.63;1.27;;;10.50;99.90;;;;;;5030220;28;20217;-68
2021/05/24 06:27:37;;;;;;;6.03;1.45;;;10.70;99.90;;;;;;5032580;28;20430;-69
2021/05/24 06:30:08;;;;;;;5.60;1.45;;;10.90;99.90;;;;;;5029238;28;20205;-68
2021/05/24 06:32:34;;;;;;;5.30;1.30;;;11.10;99.90;;;;;;5015760;28;20228;-69
2021/05/24 06:35:00;;;;;;;5.37;1.23;;;11.30;99.90;;;;;;5028385;28;20218;-73
2021/05/24 06:37:25;;;;;;;5.63;1.47;;;11.40;99.90;;;;;;5032917;28;20644;-72
2021/05/24 06:39:51;;;;;;;5.67;1.37;;;11.50;99.90;;;;;;5018177;28;20193;-70
2021/05/24 06:42:18;;;;;;;6.43;1.73;;;11.60;99.90;;;;;;5015623;28;20198;-68
2021/05/24 06:44:44;;;;;;;5.72;1.83;;;11.80;99.90;;;;;;5029187;28;20672;-74
2021/05/24 06:47:09;;;;;;;5.53;1.43;;;12.00;99.90;;;;;;5006347;28;20180;-71
2021/05/24 06:49:35;;;;;;;5.57;1.43;;;12.10;99.90;;;;;;5010057;28;20253;-73
2021/05/24 06:52:05;;;;;;;6.30;1.47;;;12.30;99.90;;;;;;5016955;28;20171;-71
2021/05/24 06:54:31;;;;;;;5.60;1.60;;;12.40;99.90;;;;;;5023511;28;20493;-71
2021/05/24 06:56:57;;;;;;;6.60;1.33;;;12.60;99.90;;;;;;5029951;28;20418;-69
2021/05/24 06:59:23;;;;;;;5.63;1.43;;;12.80;99.90;;;;;;5025458;28;20449;-71
2021/05/24 07:01:49;;;;;;;5.20;1.40;;;13.00;99.90;;;;;;5005958;28;20180;-70
2021/05/24 07:04:14;;;;;;;5.10;1.37;;;13.10;99.90;;;;;;5032092;28;20283;-72
2021/05/24 07:06:40;;;;;;;5.03;1.37;;;13.30;99.90;;;;;;5033093;28;20977;-73
2021/05/24 07:09:07;;;;;;;5.00;1.50;;;13.50;99.90;;;;;;5016576;28;20176;-73
2021/05/24 07:11:32;;;;;;;5.03;1.40;;;13.70;99.90;;;;;;5018128;28;20165;-73
2021/05/24 07:13:58;;;;;;;10.57;2.00;;;13.90;99.90;;;;;;5035910;28;20513;-75
2021/05/24 07:16:23;;;;;;;5.60;1.37;;;14.10;99.90;;;;;;5001305;28;20181;-74
2021/05/24 07:18:49;;;;;;;5.40;1.67;;;14.30;99.90;;;;;;5016480;28;20705;-72
2021/05/24 07:21:15;;;;;;;4.80;1.60;;;14.50;99.90;;;;;;5016608;28;20170;-72
2021/05/24 07:23:40;;;;;;;5.27;1.87;;;14.70;99.90;;;;;;5018209;28;20202;-72
2021/05/24 07:26:06;;;;;;;5.47;2.20;;;14.90;99.90;;;;;;4997363;28;20200;-66
2021/05/24 07:28:32;;;;;;;5.20;2.03;;;15.10;99.90;;;;;;5033321;28;20230;-64
2021/05/24 07:30:57;;;;;;;5.80;2.27;;;15.60;99.90;;;;;;5037853;28;20187;-67
2021/05/24 07:33:23;;;;;;;10.70;4.60;;;16.10;99.90;;;;;;5021038;28;20591;-64
2021/05/24 07:35:49;;;;;;;6.33;2.00;;;16.40;99.90;;;;;;5017961;28;20239;-67
2021/05/24 07:38:14;;;;;;;4.90;1.73;;;16.50;99.20;;;;;;5017825;28;20181;-65
2021/05/24 07:40:40;;;;;;;4.77;2.00;;;16.60;99.70;;;;;;4997069;28;20169;-69
2021/05/24 07:43:06;;;;;;;5.03;2.33;;;16.70;98.90;;;;;;5022448;28;20175;-67
2021/05/24 07:45:32;;;;;;;5.10;1.83;;;16.80;98.80;;;;;;5035719;28;20239;-66
2021/05/24 07:47:57;;;;;;;5.57;2.00;;;16.90;98.50;;;;;;5024450;28;20421;-67
2021/05/24 07:50:26;;;;;;;5.23;1.67;;;16.90;98.30;;;;;;5035645;28;20541;-66
2021/05/24 07:52:52;;;;;;;5.30;1.67;;;16.80;97.90;;;;;;5023808;28;20172;-68
2021/05/24 07:55:18;;;;;;;4.00;1.23;;;16.80;97.70;;;;;;5015753;28;20839;-70
2021/05/24 07:57:43;;;;;;;4.23;1.20;;;16.80;97.40;;;;;;5006081;28;20416;-66
2021/05/24 08:00:11;;;;;;;4.43;1.17;;;16.60;97.30;;;;;;5035695;28;20174;-66
2021/05/24 08:02:41;;;;;;;4.03;1.13;;;16.50;97.70;;;;;;5026351;28;20537;-67
2021/05/24 08:05:08;;;;;;;4.50;1.83;;;16.40;98.30;;;;;;5025073;28;20490;-65
2021/05/24 08:07:35;;;;;;;4.20;1.30;;;16.30;98.70;;;;;;5022555;28;20515;-68
2021/05/24 08:10:01;;;;;;;4.17;1.23;;;16.30;99.00;;;;;;5035450;28;20407;-64
2021/05/24 08:12:26;;;;;;;4.43;1.20;;;16.20;98.70;;;;;;5028361;28;20422;-64
2021/05/24 08:14:53;;;;;;;4.50;1.33;;;16.20;99.30;;;;;;5014658;28;20212;-66
2021/05/24 08:17:18;;;;;;;4.17;1.40;;;16.10;99.60;;;;;;5020206;28;20179;-64
2021/05/24 08:19:44;;;;;;;4.13;1.17;;;16.00;99.50;;;;;;5035353;28;20416;-64
2021/05/24 08:22:10;;;;;;;4.10;0.90;;;16.10;99.20;;;;;;5034578;28;20164;-64
2021/05/24 08:24:35;;;;;;;4.00;1.20;;;16.00;98.80;;;;;;5034838;28;20696;-66
2021/05/24 08:27:01;;;;;;;4.47;1.40;;;15.90;99.10;;;;;;5014664;28;20174;-64
2021/05/24 08:29:27;;;;;;;4.33;0.80;;;15.90;99.40;;;;;;5015330;28;20170;-66
2021/05/24 08:31:53;;;;;;;5.07;1.20;;;16.10;99.30;;;;;;5015132;28;20184;-62
2021/05/24 08:34:18;;;;;;;4.77;1.03;;;16.30;98.80;;;;;;5014914;28;20863;-66
2021/05/24 08:36:45;;;;;;;4.00;1.00;;;16.50;98.00;;;;;;5017226;28;20185;-64
2021/05/24 08:39:11;;;;;;;3.80;0.87;;;16.70;96.50;;;;;;5003275;28;20716;-66
2021/05/24 08:41:38;;;;;;;3.87;0.73;;;17.00;97.20;;;;;;4997381;28;20410;-67
2021/05/24 08:44:05;;;;;;;3.80;0.87;;;17.10;96.50;;;;;;5016514;28;20933;-68
2021/05/24 08:46:30;;;;;;;3.43;0.77;;;17.30;95.20;;;;;;5034756;28;20414;-67
2021/05/24 08:48:56;;;;;;;3.73;1.00;;;17.40;94.80;;;;;;5015194;28;20470;-72
2021/05/24 08:51:22;;;;;;;4.93;0.53;;;17.50;94.90;;;;;;4997321;28;20325;-72
2021/05/24 08:53:48;;;;;;;5.40;1.00;;;17.70;95.20;;;;;;5006263;28;21007;-71
2021/05/24 08:56:14;;;;;;;4.27;1.40;;;;;;;;;;5002722;28;20174;-70
2021/05/24 08:58:39;;;;;;;3.67;0.70;;;19.40;99.90;;;;;;5018381;28;20187;-72
2021/05/24 09:01:06;;;;;;;3.40;0.60;;;20.60;99.90;;;;;;5031817;28;20985;-72
2021/05/24 09:03:34;;;;;;;3.40;0.67;;;21.40;90.30;;;;;;5033905;28;20283;-70
2021/05/24 09:06:01;;;;;;;3.40;0.80;;;21.50;90.50;;;;;;5017700;28;20520;-71
2021/05/24 09:08:34;;;;;;;3.40;0.70;;;22.20;86.70;;;;;;5014115;28;20461;-71
2021/05/24 09:11:00;;;;;;;3.70;0.63;;;22.90;81.10;;;;;;5007874;28;20480;-71
2021/05/24 09:13:29;;;;;;;3.20;0.50;;;23.60;80.90;;;;;;5014126;28;20389;-71
2021/05/24 09:15:55;;;;;;;3.33;0.70;;;23.80;80.90;;;;;;5029347;28;20224;-71
2021/05/24 09:18:22;;;;;;;3.13;0.67;;;24.60;95.10;;;;;;5034482;28;20405;-70
2021/05/24 09:20:51;;;;;;;3.30;0.60;;;24.20;68.00;;;;;;5020000;28;20196;-71
2021/05/24 09:23:29;;;;;;;3.10;0.70;;;24.20;69.50;;;;;;5005120;28;20525;-70
2021/05/24 09:26:04;;;;;;;3.23;0.63;;;23.90;68.00;;;;;;5009523;28;20812;-69
2021/05/24 09:29:05;;;;;;;3.20;0.67;;;23.80;69.20;;;;;;5015306;28;20398;-70
2021/05/24 09:31:32;;;;;;;3.30;0.90;;;23.70;72.50;;;;;;5000836;28;20521;-70
2021/05/24 09:34:05;;;;;;;3.03;0.67;;;23.60;67.50;;;;;;5013934;28;20466;-72
2021/05/24 09:36:31;;;;;;;2.97;0.80;;;23.60;66.60;;;;;;5013656;28;20398;-70
2021/05/24 09:39:05;;;;;;;3.30;0.90;;;23.60;65.80;;;;;;5030049;28;20882;-71
2021/05/24 09:41:44;;;;;;;3.60;0.60;;;23.40;68.60;;;;;;5033858;28;20396;-71
2021/05/24 09:44:22;;;;;;;3.60;1.07;;;23.10;68.70;;;;;;5015393;28;20804;-72
2021/05/24 09:46:50;;;;;;;3.60;1.40;;;22.90;70.00;;;;;;5014069;28;20467;-70
2021/05/24 09:49:16;;;;;;;3.50;0.90;;;22.90;72.10;;;;;;5014106;28;20441;-72
2021/05/24 09:51:45;;;;;;;3.10;0.80;;;22.90;72.10;;;;;;5011704;28;20428;-71
2021/05/24 09:54:15;;;;;;;2.90;0.80;;;23.00;71.10;;;;;;5015408;28;20206;-72
2021/05/24 09:56:48;;;;;;;3.00;0.70;;;23.00;68.70;;;;;;5022792;28;20463;-72
2021/05/24 09:59:16;;;;;;;2.93;0.60;;;23.00;68.10;;;;;;5008087;28;20423;-70
2021/05/24 10:01:48;;;;;;;3.20;0.70;;;23.00;69.90;;;;;;5001521;28;20434;-71
2021/05/24 10:04:22;;;;;;;3.00;0.60;;;22.80;69.10;;;;;;5013112;28;20477;-71
2021/05/24 10:06:48;;;;;;;3.13;0.60;;;22.90;71.40;;;;;;4999768;28;20440;-70
2021/05/24 10:09:16;;;;;;;2.90;0.67;;;22.90;69.10;;;;;;5013700;28;20402;-71
2021/05/24 10:11:44;;;;;;;3.20;0.70;;;23.00;68.00;;;;;;5032457;28;20424;-70
2021/05/24 10:14:15;;;;;;;3.00;0.80;;;23.10;68.80;;;;;;5032707;28;20453;-71
2021/05/24 10:16:44;;;;;;;3.10;0.70;;;22.90;69.10;;;;;;5014269;28;20410;-69
2021/05/24 10:19:12;;;;;;;2.77;0.43;;;22.90;68.70;;;;;;5013626;28;20402;-70
2021/05/24 10:21:38;;;;;;;6.80;0.80;;;22.90;69.00;;;;;;5018999;28;20397;-71
2021/05/24 10:24:05;;;;;;;3.20;0.87;;;22.60;68.70;;;;;;4993507;28;21019;-72
2021/05/24 10:26:31;;;;;;;3.10;0.67;;;22.30;69.60;;;;;;5027726;28;20426;-71
2021/05/24 10:28:57;;;;;;;3.00;0.70;;;22.30;71.30;;;;;;5033510;28;20416;-71
2021/05/24 10:31:27;;;;;;;2.90;0.70;;;22.30;70.80;;;;;;5017718;28;20422;-71
2021/05/24 10:34:09;;;;;;;3.30;1.07;;;22.30;71.90;;;;;;5012905;28;20523;-70
2021/05/24 10:36:35;;;;;;;2.90;0.60;;;22.20;70.80;;;;;;5021283;28;20427;-70
2021/05/24 10:39:21;;;;;;;3.00;0.80;;;22.10;71.00;;;;;;5013201;28;20435;-71
2021/05/24 10:41:51;;;;;;;3.20;0.77;;;21.80;71.90;;;;;;5012818;28;20922;-71
2021/05/24 10:44:23;;;;;;;3.30;0.87;;;21.50;72.80;;;;;;5032664;28;20985;-70
2021/05/24 10:46:53;;;;;;;3.10;0.90;;;21.20;73.40;;;;;;5015957;28;20422;-72
2021/05/24 10:49:23;;;;;;;3.20;1.07;;;21.00;73.00;;;;;;5013450;28;20412;-71
2021/05/24 10:51:51;;;;;;;3.13;0.77;;;21.00;72.60;;;;;;5005902;28;20735;-71
2021/05/24 10:54:20;;;;;;;3.07;0.90;;;20.80;73.10;;;;;;5013499;28;20455;-70
2021/05/24 10:56:47;;;;;;;3.23;0.90;;;20.70;73.30;;;;;;5011214;28;20414;-72
2021/05/24 10:59:41;;;;;;;3.23;0.70;;;20.50;73.70;;;;;;5023950;28;20425;-72
2021/05/24 11:02:29;;;;;;;3.53;0.87;;;20.40;76.90;;;;;;4996842;28;20442;-71
2021/05/24 11:05:07;;;;;;;3.60;0.90;;;20.30;76.10;;;;;;5021088;28;20458;-71
2021/05/24 11:07:46;;;;;;;8.53;0.90;;;20.20;77.00;;;;;;5013166;28;20405;-72
2021/05/24 11:10:45;;;;;;;3.30;0.80;;;20.10;78.40;;;;;;5030856;28;20409;-73
2021/05/24 11:13:11;;;;;;;3.77;1.03;;;20.00;77.90;;;;;;4932225;29;20924;-70
2021/05/24 11:15:39;;;;;;;3.80;1.20;;;20.00;78.20;;;;;;4914695;29;20493;-72
2021/05/24 11:18:07;;;;;;;3.23;0.70;;;20.00;79.60;;;;;;4914878;29;20489;-71
2021/05/24 11:20:41;;;;;;;3.57;0.83;;;20.00;80.30;;;;;;4922904;29;20490;-70
2021/05/24 11:23:11;;;;;;;3.47;0.90;;;20.10;79.90;;;;;;4914213;29;20434;-72
2021/05/24 11:25:51;;;;;;;4.10;0.87;;;20.20;79.00;;;;;;4933559;29;20437;-71
2021/05/24 11:28:18;;;;;;;3.57;1.00;;;20.20;79.60;;;;;;4918947;29;20439;-73
2021/05/24 11:30:45;;;;;;;3.90;1.20;;;20.30;79.30;;;;;;4918460;29;20529;-72
2021/05/24 11:33:40;;;;;;;3.40;0.80;;;20.40;79.10;;;;;;4917674;29;20424;-71
2021/05/24 11:36:09;;;;;;;3.50;0.90;;;20.40;79.10;;;;;;4920573;29;20962;-71
2021/05/24 11:38:35;;;;;;;3.00;0.50;;;20.40;78.20;;;;;;4919930;29;20436;-70
2021/05/24 11:41:31;;;;;;;4.30;0.87;;;20.40;78.00;;;;;;4920483;29;20427;-71
2021/05/24 11:44:01;;;;;;;3.57;0.90;;;20.50;79.20;;;;;;4930554;29;20206;-71
2021/05/24 11:46:40;;;;;;;4.00;0.90;;;20.60;78.50;;;;;;4902648;29;20424;-70
2021/05/24 11:49:06;;;;;;;3.60;1.00;;;20.70;78.40;;;;;;4929491;28;20433;-73
2021/05/24 11:51:34;;;;;;;3.73;1.20;;;21.10;76.20;;;;;;4995004;28;20512;-71
2021/05/24 11:54:11;;;;;;;3.73;0.90;;;21.30;75.10;;;;;;5016417;28;20237;-71
2021/05/24 11:56:49;;;;;;;3.30;0.80;;;21.60;75.50;;;;;;5016040;28;20492;-72
2021/05/24 11:59:18;;;;;;;3.33;0.53;;;22.00;74.20;;;;;;4996371;28;20434;-71
2021/05/24 12:01:46;;;;;;;3.10;0.80;;;22.30;72.50;;;;;;5011345;28;20424;-70
2021/05/24 12:04:26;;;;;;;3.00;0.60;;;22.50;70.40;;;;;;5023272;28;20444;-72
2021/05/24 12:06:53;;;;;;;3.30;0.93;;;22.60;70.80;;;;;;5030112;28;20434;-71
2021/05/24 12:09:53;;;;;;;3.60;0.90;;;22.60;69.10;;;;;;5017749;28;20443;-72
2021/05/24 12:12:29;;;;;;;3.10;0.70;;;22.60;69.70;;;;;;4964189;28;20518;-71
2021/05/24 12:15:00;;;;;;;4.43;0.93;;;22.50;70.50;;;;;;4997598;28;20458;-71
2021/05/24 12:17:28;;;;;;;3.60;1.00;;;22.30;72.00;;;;;;5035602;28;20409;-71
2021/05/24 12:19:55;;;;;;;3.50;1.20;;;22.00;71.90;;;;;;5017079;28;20414;-73
2021/05/24 12:22:27;;;;;;;3.27;0.87;;;22.00;72.60;;;;;;5015618;28;20402;-74
2021/05/24 12:24:55;;;;;;;3.50;0.93;;;22.40;78.50;;;;;;4996752;28;20461;-71
2021/05/24 12:27:24;;;;;;;3.40;0.73;;;22.10;73.00;;;;;;5015663;28;20430;-72
2021/05/24 12:30:16;;;;;;;4.63;0.87;;;22.10;71.20;;;;;;5015675;28;20446;-71
2021/05/24 12:32:53;;;;;;;3.40;0.90;;;22.20;72.90;;;;;;4995885;28;20916;-73
2021/05/24 12:35:24;;;;;;;3.60;1.07;;;22.20;71.80;;;;;;5016706;28;20462;-72
2021/05/24 12:38:06;;;;;;;3.53;1.00;;;22.20;70.00;;;;;;5035636;28;20397;-72
2021/05/24 12:40:32;;;;;;;3.20;0.70;;;;;;;;;;5005748;28;20415;-72
2021/05/24 12:42:58;;;;;;;2.90;0.60;;;22.30;83.90;;;;;;5034734;28;20782;-71
2021/05/24 12:45:29;;;;;;;2.80;0.70;;;22.30;65.60;;;;;;5032307;28;20432;-71
2021/05/24 12:47:59;;;;;;;3.27;0.70;;;22.10;66.20;;;;;;4997251;28;20279;-71
2021/05/24 12:50:29;;;;;;;4.60;1.70;;;21.90;65.90;;;;;;5017511;28;20476;-71
2021/05/24 12:52:54;;;;;;;3.10;0.73;;;21.90;65.10;;;;;;5034644;28;20416;-72
2021/05/24 12:55:20;;;;;;;3.70;0.93;;;21.90;63.80;;;;;;5033115;28;20457;-70
2021/05/24 12:57:47;;;;;;;6.07;1.10;;;21.80;64.50;;;;;;4997195;28;20186;-71